Metar Aviation Weather Data     EFOU Oulu Airport
Temperature
18°C Temperature
18°C Dewpoint
100% Humidity



Wind
7 MPH
11 KM/H
3 M/S
6 KTS



180°
S
Current Conditions

Showers, Rain, Area Thunderstorm Showers, Rain, Area Thunderstorm
Pressure 1009.92 (hPa) - 29.82 (inHg)
Visibility 6.2 (mile) - 10 (km)
Airport
Airport-code EFOU

Location: Oulu Airport
Distance: 83 (mi)

Metar:
EFOU 171820Z AUTO 18006KT 150V210 9999 SHRA VCTS //////CB 18/18 Q1010 RETSRA

Time: 17-08-2022 21:20 EEST